Pompano Beach, FL

3:20 PM EDT on August 29, 2015 (GMT -0400)
Pompano Beach | | Change Station
CLOSE
Current Station
Airport
Location: Pompano Beach,
Elevation: 20 ft
Nearby Weather Stations

Elev 20 ft 26.25 °N, 80.11 °W | Updated 5 minutes ago

Light Thunderstorms and Rain
Light Thunderstorm Rain
81 °F
Feels Like 88 °F
N
8
Wind Variable Wind from ENE

Today
High -- | Low -- °F
--% Chance of Precip.
Yesterday
High -- | Low -- °F
Precip. -- in
6:59 AM 7:43 PM
Full, 100% visible
Pressure 29.99 in
Visibility 8.0 miles
Clouds Few 3000 ft
Mostly Cloudy 4600 ft
Overcast 7000 ft
Heat Index 88 °F
Dew Point 77 °F
Humidity 88%
Rainfall 0.02 in
Snow Depth Not available.
UV 4 out of 12
Pollen 5.20 out of 12
Air Quality Not available.
Flu Activity Not available.
SPECI KPMP 291915Z 06007KT 8SM -TSRA FEW030 BKN046 OVC070 27/25 A2999 RMK AO2 LTG DSNT N AND SE AND SW PRESFR P0007 T02720250
Pressure 29.99 in
Visibility 8.0 miles
Clouds Few 3000 ft
Mostly Cloudy 4600 ft
Overcast 7000 ft
Heat Index 88 °F
Dew Point 77 °F
Humidity 88%
Rainfall 0.02 in
Snow Depth Not available.
UV 4 out of 12
Pollen 5.20 out of 12
Air Quality Not available.
Flu Activity Not available.
SPECI KPMP 291915Z 06007KT 8SM -TSRA FEW030 BKN046 OVC070 27/25 A2999 RMK AO2 LTG DSNT N AND SE AND SW PRESFR P0007 T02720250
Nowcast | as of 1:20 PM EDT on August 29, 2015

Gusty rain showers with some embedded thunderstorms will continue moving quickly onshore through this afternoon. Expect brief downpours with winds gusting to 30 mph at times. Activity will be moving to the west around 25 mph.

×

10-Day Weather Forecast

×

Almanac

Astronomy

Aug. 29, 2015 Rise Set
Actual Time
Civil Twilight
Nautical Twilight
Astronomical Twilight
Moon
Length of Visible Light
Length of Day
Tomorrow will be .
, % of the Moon is Illuminated

Today's Extremes

State Highs State Lows

Community

WunderPhotos

Upload Photos

1,850,780 photos uploaded!

WunderBlogs® & News

Nearby

Air Quality

  Air Quality AQ Index Pollutant
Not available.

Snow Depth

Station Depth Elevation

Earthquake Activity

City Distance Mag. Time & Date
Minimum magnitude displayed is 2.5.

Coastal Water Temperatures

Place Temperature

Stations

Nearby Weather Stations

Station Location Temp. Windchill Dew Point Humidity Wind Precip. Elev Updated Type